createdAt,value
2017-08-03T00:00:41.083Z,21.63
2017-08-03T00:03:07.867Z,16.93
2017-08-03T00:05:34.434Z,20.40
2017-08-03T00:08:01.017Z,15.10
2017-08-03T00:10:28.287Z,21.97
2017-08-03T00:12:54.846Z,19.87
2017-08-03T00:15:21.442Z,19.53
2017-08-03T00:17:48.180Z,18.33
2017-08-03T00:20:14.761Z,17.60
2017-08-03T00:22:41.338Z,20.60
2017-08-03T00:25:08.031Z,17.23
2017-08-03T00:27:34.612Z,18.20
2017-08-03T00:30:01.192Z,21.23
2017-08-03T00:32:27.925Z,17.90
2017-08-03T00:34:54.498Z,23.23
2017-08-03T00:37:21.082Z,18.80
2017-08-03T00:39:47.673Z,23.73
2017-08-03T00:42:14.280Z,21.80
2017-08-03T00:44:40.972Z,16.87
2017-08-03T00:47:07.747Z,27.87
2017-08-03T00:49:34.308Z,20.97
2017-08-03T00:52:00.884Z,20.23
2017-08-03T00:54:27.624Z,18.17
2017-08-03T00:56:54.240Z,22.37
2017-08-03T00:59:20.905Z,19.20
2017-08-03T01:01:47.637Z,18.00
2017-08-03T01:04:14.223Z,13.93
2017-08-03T01:06:41.053Z,14.40
2017-08-03T01:09:07.781Z,17.03
2017-08-03T01:11:34.356Z,16.10
2017-08-03T01:14:00.933Z,15.43
2017-08-03T01:16:27.699Z,14.70
2017-08-03T01:18:54.274Z,12.03
2017-08-03T01:21:20.852Z,15.00
2017-08-03T01:23:47.540Z,13.60
2017-08-03T01:26:14.129Z,16.20
2017-08-03T01:28:40.724Z,16.13
2017-08-03T01:31:07.489Z,15.13
2017-08-03T01:33:34.080Z,14.30
2017-08-03T01:36:00.660Z,13.33
2017-08-03T01:38:27.404Z,14.20
2017-08-03T01:40:53.980Z,13.73
2017-08-03T01:43:20.562Z,12.20
2017-08-03T01:45:47.161Z,11.57
2017-08-03T01:48:13.765Z,12.73
2017-08-03T01:50:40.361Z,12.77
2017-08-03T01:53:07.105Z,11.53
2017-08-03T01:55:33.672Z,12.63
2017-08-03T01:58:00.251Z,12.47
2017-08-03T02:00:26.996Z,11.83
2017-08-03T02:02:53.565Z,10.77
2017-08-03T02:05:20.153Z,12.37
2017-08-03T02:07:46.751Z,11.47
2017-08-03T02:10:13.551Z,10.00
2017-08-03T02:12:40.117Z,10.50
2017-08-03T02:15:06.801Z,11.20
2017-08-03T02:17:33.384Z,10.87
2017-08-03T02:19:59.944Z,14.60
2017-08-03T02:22:26.673Z,13.10
2017-08-03T02:24:53.288Z,13.63
2017-08-03T02:27:19.864Z,11.03
2017-08-03T02:29:46.478Z,12.83
2017-08-03T02:32:13.074Z,9.00
2017-08-03T02:34:39.814Z,11.60
2017-08-03T02:37:06.556Z,12.17
2017-08-03T02:39:33.136Z,15.90
2017-08-03T02:41:59.720Z,8.27
2017-08-03T02:44:26.321Z,10.10
2017-08-03T02:46:52.900Z,14.00
2017-08-03T02:49:19.488Z,8.53
2017-08-03T02:51:46.112Z,9.13
2017-08-03T02:54:12.717Z,14.33
2017-08-03T02:56:39.561Z,9.97
2017-08-03T02:59:06.197Z,8.23
2017-08-03T03:01:32.779Z,9.23
2017-08-03T03:03:59.424Z,16.07
2017-08-03T03:06:26.254Z,8.77
2017-08-03T03:08:52.832Z,11.60
2017-08-03T03:11:19.401Z,9.77
2017-08-03T03:13:46.159Z,9.20
2017-08-03T03:16:12.740Z,12.47
2017-08-03T03:18:39.332Z,16.70
2017-08-03T03:21:06.072Z,9.27
2017-08-03T03:23:32.648Z,9.70
2017-08-03T03:25:59.233Z,10.50
2017-08-03T03:28:26.172Z,13.30
2017-08-03T03:30:52.740Z,11.20
2017-08-03T03:33:19.319Z,11.13
2017-08-03T03:35:46.064Z,11.93
2017-08-03T03:38:12.644Z,13.20
2017-08-03T03:40:39.262Z,10.23
2017-08-03T03:43:05.952Z,17.37
2017-08-03T03:45:32.504Z,10.57
2017-08-03T03:47:59.084Z,9.37
2017-08-03T03:50:25.677Z,10.20
2017-08-03T03:52:52.256Z,11.47
2017-08-03T03:55:18.833Z,15.53
2017-08-03T03:57:45.588Z,11.47
2017-08-03T04:00:12.272Z,11.10
2017-08-03T04:02:38.875Z,11.60
2017-08-03T04:05:05.572Z,12.20
2017-08-03T04:07:32.152Z,10.90
2017-08-03T04:09:58.730Z,16.13
2017-08-03T04:12:25.431Z,15.60
2017-08-03T04:14:52.000Z,12.50
2017-08-03T04:17:18.593Z,11.90
2017-08-03T04:19:45.380Z,10.63
2017-08-03T04:22:11.957Z,10.83
2017-08-03T04:24:38.536Z,11.57
2017-08-03T04:27:05.345Z,14.80
2017-08-03T04:29:31.925Z,11.83
2017-08-03T04:31:58.498Z,15.47
2017-08-03T04:34:25.101Z,10.00
2017-08-03T04:36:51.685Z,13.03
2017-08-03T04:39:18.338Z,11.60
2017-08-03T04:41:44.936Z,17.07
2017-08-03T04:44:12.546Z,10.53
2017-08-03T04:46:39.133Z,16.60
2017-08-03T04:49:05.713Z,14.93
2017-08-03T04:51:32.292Z,16.33
2017-08-03T04:53:58.864Z,10.03
2017-08-03T04:56:25.504Z,9.77
2017-08-03T04:58:52.084Z,11.97
2017-08-03T05:01:18.661Z,9.03
2017-08-03T05:03:45.428Z,9.10
2017-08-03T05:06:12.009Z,10.57
2017-08-03T05:08:38.584Z,10.43
2017-08-03T05:11:05.320Z,17.37
2017-08-03T05:13:31.980Z,10.43
2017-08-03T05:15:58.586Z,10.70
2017-08-03T05:18:25.173Z,9.00
2017-08-03T05:20:51.753Z,13.23
2017-08-03T05:23:18.328Z,11.03
2017-08-03T05:25:45.060Z,18.93
2017-08-03T05:28:11.640Z,11.53
2017-08-03T05:30:38.353Z,13.23
2017-08-03T05:33:05.417Z,13.77
2017-08-03T05:35:32.113Z,11.30
2017-08-03T05:37:58.690Z,13.47
2017-08-03T05:40:25.272Z,17.10
2017-08-03T05:42:51.857Z,11.40
2017-08-03T05:45:18.441Z,15.70
2017-08-03T05:47:45.244Z,10.50
2017-08-03T05:50:11.964Z,12.90
2017-08-03T05:52:38.570Z,13.87
2017-08-03T05:55:05.168Z,16.47
2017-08-03T05:57:31.752Z,15.10
2017-08-03T05:59:58.330Z,16.97
2017-08-03T06:02:24.917Z,10.60
2017-08-03T06:04:51.498Z,12.87
2017-08-03T06:07:18.076Z,15.93
2017-08-03T06:09:44.705Z,11.37
2017-08-03T06:12:11.421Z,14.43
2017-08-03T06:14:38.004Z,16.53
2017-08-03T06:17:04.612Z,16.20
2017-08-03T06:19:31.187Z,15.37
2017-08-03T06:21:57.784Z,14.80
2017-08-03T06:24:24.518Z,15.87
2017-08-03T06:26:51.140Z,16.30
2017-08-03T06:29:18.656Z,15.20
2017-08-03T06:31:45.864Z,19.40
2017-08-03T06:34:12.467Z,18.67
2017-08-03T06:36:39.084Z,15.57
2017-08-03T06:39:05.985Z,13.00
2017-08-03T06:41:32.552Z,16.50
2017-08-03T06:43:59.208Z,13.47
2017-08-03T06:46:33.240Z,16.97
2017-08-03T06:48:59.821Z,12.67
2017-08-03T06:51:26.416Z,19.30
2017-08-03T06:53:53.328Z,16.13
2017-08-03T06:56:19.911Z,17.33
2017-08-03T06:58:46.916Z,22.37
2017-08-03T07:01:14.047Z,14.17
2017-08-03T07:03:40.621Z,16.17
2017-08-03T07:06:07.210Z,16.93
2017-08-03T07:08:33.938Z,16.97
2017-08-03T07:11:00.538Z,16.90
2017-08-03T07:13:30.672Z,14.40
2017-08-03T07:15:57.459Z,16.37
2017-08-03T07:18:24.047Z,18.00
2017-08-03T07:20:50.679Z,15.83
2017-08-03T07:23:23.484Z,17.30
2017-08-03T07:25:50.117Z,17.17
2017-08-03T07:28:16.700Z,16.47
2017-08-03T07:30:43.470Z,12.10
2017-08-03T07:33:10.070Z,12.97
2017-08-03T07:35:36.655Z,16.43
2017-08-03T07:38:03.625Z,12.87
2017-08-03T07:40:30.204Z,16.30
2017-08-03T07:42:56.792Z,13.90
2017-08-03T07:45:23.566Z,14.17
2017-08-03T07:47:50.165Z,16.80
2017-08-03T07:50:16.743Z,18.63
2017-08-03T07:52:43.763Z,15.00
2017-08-03T07:55:10.415Z,18.97
2017-08-03T07:57:36.984Z,19.97
2017-08-03T08:00:03.742Z,18.60
2017-08-03T08:02:30.349Z,18.80
2017-08-03T08:04:56.928Z,15.33
2017-08-03T08:07:23.657Z,19.03
2017-08-03T08:09:50.232Z,18.17
2017-08-03T08:12:17.597Z,21.87
2017-08-03T08:14:44.498Z,17.57
2017-08-03T08:17:11.121Z,19.80
2017-08-03T08:19:37.704Z,17.77
2017-08-03T08:22:04.668Z,16.03
2017-08-03T08:24:31.291Z,18.50
2017-08-03T08:26:57.871Z,20.67
2017-08-03T08:29:24.604Z,18.93
2017-08-03T08:31:51.175Z,22.73
2017-08-03T08:34:17.753Z,14.87
2017-08-03T08:36:44.370Z,14.87
2017-08-03T08:39:10.949Z,16.23
2017-08-03T08:41:37.552Z,14.67
2017-08-03T08:44:04.302Z,16.83
2017-08-03T08:46:30.881Z,16.67
2017-08-03T08:48:57.469Z,18.17
2017-08-03T08:51:24.248Z,15.73
2017-08-03T08:53:50.828Z,15.47
2017-08-03T08:56:17.417Z,21.03
2017-08-03T08:58:44.389Z,16.23
2017-08-03T09:01:11.440Z,16.37
2017-08-03T09:03:38.033Z,15.90
2017-08-03T09:06:04.680Z,16.20
2017-08-03T09:08:31.278Z,15.90
2017-08-03T09:10:57.862Z,13.70
2017-08-03T09:13:24.656Z,12.87
2017-08-03T09:15:51.239Z,12.07
2017-08-03T09:18:17.880Z,13.70
2017-08-03T09:20:44.461Z,12.73
2017-08-03T09:23:11.114Z,15.70
2017-08-03T09:25:37.755Z,18.50
2017-08-03T09:28:04.696Z,14.50
2017-08-03T09:30:31.252Z,13.43
2017-08-03T09:32:57.849Z,14.27
2017-08-03T09:35:24.683Z,19.57
2017-08-03T09:37:51.283Z,10.60
2017-08-03T09:40:17.860Z,11.80
2017-08-03T09:42:44.621Z,11.07
2017-08-03T09:45:11.200Z,12.13
2017-08-03T09:47:37.814Z,10.27
2017-08-03T09:50:04.621Z,10.03
2017-08-03T09:52:31.301Z,9.70
2017-08-03T09:54:57.893Z,16.70
2017-08-03T09:57:24.490Z,9.73
2017-08-03T09:59:51.069Z,8.73
2017-08-03T10:02:17.688Z,11.83
2017-08-03T10:04:44.321Z,9.73
2017-08-03T10:07:10.929Z,11.67
2017-08-03T10:09:37.523Z,5.90
2017-08-03T10:12:04.413Z,6.97
2017-08-03T10:14:30.989Z,7.47
2017-08-03T10:16:57.549Z,8.00
2017-08-03T10:19:24.159Z,6.07
2017-08-03T10:21:50.732Z,9.00
2017-08-03T10:24:17.321Z,7.33
2017-08-03T10:26:43.916Z,5.80
2017-08-03T10:29:10.513Z,4.53
2017-08-03T10:31:37.095Z,3.67
2017-08-03T10:34:03.904Z,5.03
2017-08-03T10:36:30.476Z,3.40
2017-08-03T10:38:57.048Z,3.10
2017-08-03T10:41:23.628Z,4.13
2017-08-03T10:43:50.265Z,4.27
2017-08-03T10:46:16.836Z,3.67
2017-08-03T10:48:43.844Z,3.90
2017-08-03T10:51:10.725Z,3.30
2017-08-03T10:53:37.347Z,4.60
2017-08-03T10:56:03.959Z,2.87
2017-08-03T10:58:30.533Z,2.80
2017-08-03T11:00:57.100Z,4.60
2017-08-03T11:03:23.689Z,2.67
2017-08-03T11:05:50.253Z,3.67
2017-08-03T11:08:16.912Z,7.60
2017-08-03T11:10:43.835Z,2.57
2017-08-03T11:13:12.611Z,6.80
2017-08-03T11:15:39.222Z,2.20
2017-08-03T11:18:05.816Z,2.07
2017-08-03T11:20:32.392Z,2.23
2017-08-03T11:22:58.964Z,1.80
2017-08-03T11:25:25.577Z,3.83
2017-08-03T11:27:52.147Z,3.50
2017-08-03T11:30:18.745Z,2.60
2017-08-03T11:32:45.479Z,3.90
2017-08-03T11:35:12.240Z,2.50
2017-08-03T11:37:38.871Z,2.70
2017-08-03T11:40:05.625Z,2.70
2017-08-03T11:42:32.356Z,3.10
2017-08-03T11:44:59.110Z,2.70
2017-08-03T11:47:25.856Z,5.10
2017-08-03T11:49:52.430Z,2.70
2017-08-03T11:52:19.039Z,7.37
2017-08-03T11:54:45.599Z,4.00
2017-08-03T11:57:12.194Z,4.67
2017-08-03T11:59:38.781Z,7.07
2017-08-03T12:02:05.387Z,3.13
2017-08-03T12:04:31.954Z,3.97
2017-08-03T12:06:58.577Z,3.20
2017-08-03T12:09:25.190Z,7.57
2017-08-03T12:11:51.766Z,4.50
2017-08-03T12:14:18.329Z,3.23
2017-08-03T12:16:45.032Z,2.50
2017-08-03T12:19:11.748Z,3.17
2017-08-03T12:21:38.468Z,2.80
2017-08-03T12:24:05.156Z,6.57
2017-08-03T12:26:31.733Z,3.60
2017-08-03T12:28:58.312Z,2.97
2017-08-03T12:31:24.919Z,3.30
2017-08-03T12:33:51.484Z,2.40
2017-08-03T12:36:18.072Z,6.87
2017-08-03T12:38:47.996Z,3.53
2017-08-03T12:41:14.593Z,3.67
2017-08-03T12:43:41.205Z,2.50
2017-08-03T12:46:08.064Z,3.27
2017-08-03T12:48:34.632Z,2.77
2017-08-03T12:51:01.232Z,3.80
2017-08-03T12:53:27.952Z,6.03
2017-08-03T12:55:54.550Z,2.97
2017-08-03T12:58:21.177Z,4.97
2017-08-03T13:00:47.864Z,2.07
2017-08-03T13:03:14.438Z,2.30
2017-08-03T13:05:41.036Z,2.00
2017-08-03T13:08:07.703Z,3.87
2017-08-03T13:10:34.281Z,2.13
2017-08-03T13:13:00.865Z,2.30
2017-08-03T13:15:27.731Z,1.73
2017-08-03T13:17:54.301Z,1.57
2017-08-03T13:20:20.873Z,1.43
2017-08-03T13:22:47.489Z,2.60
2017-08-03T13:25:14.604Z,1.60
2017-08-03T13:27:41.466Z,1.47
2017-08-03T13:30:08.088Z,1.93
2017-08-03T13:32:34.698Z,1.70
2017-08-03T13:35:01.260Z,1.63
2017-08-03T13:37:27.989Z,1.20
2017-08-03T13:39:54.559Z,1.30
2017-08-03T13:42:21.124Z,1.33
2017-08-03T13:44:47.895Z,4.53
2017-08-03T13:47:14.453Z,1.40
2017-08-03T13:49:41.063Z,1.70
2017-08-03T13:52:07.694Z,1.27
2017-08-03T13:54:42.527Z,1.57
2017-08-03T13:57:09.330Z,1.53
2017-08-03T13:59:43.205Z,4.20
2017-08-03T14:02:10.238Z,1.60
2017-08-03T14:04:43.219Z,2.70
2017-08-03T14:07:09.869Z,1.30
2017-08-03T14:09:37.491Z,11.40
2017-08-03T14:12:04.188Z,3.53
2017-08-03T14:14:30.779Z,1.40
2017-08-03T14:16:57.348Z,1.50
2017-08-03T14:19:23.931Z,1.33
2017-08-03T14:21:50.540Z,1.63
2017-08-03T14:24:17.120Z,1.57
2017-08-03T14:26:43.700Z,1.60
2017-08-03T14:29:11.855Z,1.20
2017-08-03T14:31:38.661Z,2.00
2017-08-03T14:34:05.252Z,2.10
2017-08-03T14:36:32.073Z,2.43
2017-08-03T14:38:58.674Z,3.03
2017-08-03T14:41:25.241Z,1.50
2017-08-03T14:43:51.921Z,2.90
2017-08-03T14:46:18.538Z,1.50
2017-08-03T14:48:45.214Z,1.50
2017-08-03T14:51:11.976Z,1.60
2017-08-03T14:53:38.580Z,1.70
2017-08-03T14:56:05.153Z,1.57
2017-08-03T14:58:31.733Z,1.30
2017-08-03T15:00:58.356Z,2.60
2017-08-03T15:03:24.980Z,1.70
2017-08-03T15:05:51.969Z,1.47
2017-08-03T15:08:18.541Z,3.00
2017-08-03T15:10:45.115Z,1.70
2017-08-03T15:13:12.119Z,1.60
2017-08-03T15:15:38.775Z,1.70
2017-08-03T15:18:05.336Z,1.50
2017-08-03T15:20:31.966Z,3.17
2017-08-03T15:22:58.527Z,5.10
2017-08-03T15:25:25.100Z,1.90
2017-08-03T15:27:51.825Z,1.60
2017-08-03T15:30:18.405Z,8.90
2017-08-03T15:32:44.988Z,4.40
2017-08-03T15:35:12.039Z,2.00
2017-08-03T15:37:38.699Z,6.63
2017-08-03T15:40:05.372Z,7.63
2017-08-03T15:42:32.151Z,2.07
2017-08-03T15:44:58.716Z,3.30
2017-08-03T15:47:25.288Z,2.17
2017-08-03T15:49:52.165Z,3.77
2017-08-03T15:52:18.737Z,2.07
2017-08-03T15:54:45.308Z,2.70
2017-08-03T15:57:12.142Z,3.93
2017-08-03T15:59:38.747Z,2.73
2017-08-03T16:02:05.318Z,5.40
2017-08-03T16:04:31.913Z,3.27
2017-08-03T16:06:58.498Z,5.80
2017-08-03T16:09:25.073Z,2.40
2017-08-03T16:11:51.688Z,3.27
2017-08-03T16:14:18.260Z,1.80
2017-08-03T16:16:44.853Z,3.50
2017-08-03T16:19:11.941Z,2.90
2017-08-03T16:21:38.512Z,2.53
2017-08-03T16:24:05.165Z,2.57
2017-08-03T16:26:31.827Z,7.23
2017-08-03T16:28:58.384Z,2.67
2017-08-03T16:31:24.957Z,2.20
2017-08-03T16:33:51.881Z,6.53
2017-08-03T16:36:18.694Z,2.50
2017-08-03T16:38:45.416Z,7.37
2017-08-03T16:41:12.270Z,2.43
2017-08-03T16:43:38.966Z,5.03
2017-08-03T16:46:05.761Z,5.87
2017-08-03T16:48:32.406Z,5.33
2017-08-03T16:50:58.968Z,2.20
2017-08-03T16:53:25.594Z,5.30
2017-08-03T16:55:52.320Z,2.97
2017-08-03T16:58:18.904Z,5.40
2017-08-03T17:00:45.779Z,6.03
2017-08-03T17:03:12.462Z,7.83
2017-08-03T17:05:39.051Z,5.40
2017-08-03T17:08:05.662Z,4.60
2017-08-03T17:10:32.283Z,4.00
2017-08-03T17:13:09.556Z,5.37
2017-08-03T17:15:36.553Z,6.47
2017-08-03T17:18:03.150Z,9.20
2017-08-03T17:20:30.726Z,6.17
2017-08-03T17:22:57.372Z,7.70
2017-08-03T17:25:23.945Z,5.60
2017-08-03T17:27:50.518Z,5.33
2017-08-03T17:30:17.106Z,4.73
2017-08-03T17:32:43.770Z,4.37
2017-08-03T17:35:10.437Z,8.63
2017-08-03T17:37:37.272Z,5.00
2017-08-03T17:40:03.844Z,8.97
2017-08-03T17:42:30.473Z,7.57
2017-08-03T17:44:57.140Z,6.30
2017-08-03T17:47:23.716Z,10.73
2017-08-03T17:49:50.305Z,8.17
2017-08-03T17:52:16.984Z,8.80
2017-08-03T17:54:43.605Z,5.00
2017-08-03T17:57:10.203Z,5.53
2017-08-03T17:59:36.772Z,7.40
2017-08-03T18:02:03.359Z,7.07
2017-08-03T18:04:32.557Z,4.57
2017-08-03T18:06:59.170Z,6.17
2017-08-03T18:09:25.773Z,4.03
2017-08-03T18:11:52.354Z,6.03
2017-08-03T18:14:19.088Z,11.13
2017-08-03T18:16:45.794Z,4.90
2017-08-03T18:19:12.470Z,5.50
2017-08-03T18:21:39.092Z,5.93
2017-08-03T18:24:05.648Z,4.10
2017-08-03T18:26:32.228Z,3.13
2017-08-03T18:28:59.285Z,8.03
2017-08-03T18:31:25.881Z,5.73
2017-08-03T18:33:52.473Z,5.43
2017-08-03T18:36:19.470Z,5.13
2017-08-03T18:38:46.112Z,3.80
2017-08-03T18:41:12.685Z,7.10
2017-08-03T18:43:39.419Z,5.20
2017-08-03T18:46:06.020Z,3.43
2017-08-03T18:48:32.597Z,6.10
2017-08-03T18:50:59.193Z,5.17
2017-08-03T18:53:25.760Z,4.27
2017-08-03T18:55:52.397Z,7.03
2017-08-03T18:58:19.135Z,15.93
2017-08-03T19:00:45.717Z,3.70
2017-08-03T19:03:12.333Z,4.17
2017-08-03T19:05:38.931Z,4.53
2017-08-03T19:08:05.506Z,5.40
2017-08-03T19:10:32.180Z,8.13
2017-08-03T19:12:58.748Z,5.80
2017-08-03T19:15:25.316Z,4.80
2017-08-03T19:17:51.883Z,8.63
2017-08-03T19:20:18.785Z,2.93
2017-08-03T19:22:45.352Z,4.60
2017-08-03T19:25:12.013Z,4.30
2017-08-03T19:27:39.004Z,10.23
2017-08-03T19:30:05.592Z,4.60
2017-08-03T19:32:33.669Z,2.67
2017-08-03T19:35:06.513Z,4.73
2017-08-03T19:37:33.090Z,4.67
2017-08-03T19:39:59.658Z,6.13
2017-08-03T19:42:26.345Z,4.93
2017-08-03T19:44:52.916Z,6.10
2017-08-03T19:47:20.144Z,8.73
2017-08-03T19:49:46.812Z,6.50
2017-08-03T19:52:13.629Z,5.30
2017-08-03T19:54:40.193Z,4.17
2017-08-03T19:57:07.045Z,5.30
2017-08-03T19:59:33.630Z,8.10
2017-08-03T20:02:00.241Z,3.10
2017-08-03T20:04:34.281Z,12.23
2017-08-03T20:07:04.637Z,7.00
2017-08-03T20:09:36.340Z,3.83
2017-08-03T20:12:02.955Z,6.73
2017-08-03T20:14:29.530Z,7.00
2017-08-03T20:16:56.302Z,4.57
2017-08-03T20:19:22.881Z,3.77
2017-08-03T20:21:49.483Z,3.50
2017-08-03T20:24:16.389Z,5.57
2017-08-03T20:26:42.972Z,7.80
2017-08-03T20:29:09.553Z,6.00
2017-08-03T20:31:36.416Z,5.63
2017-08-03T20:34:02.996Z,6.83
2017-08-03T20:36:29.568Z,3.43
2017-08-03T20:38:56.333Z,13.23
2017-08-03T20:41:22.909Z,6.37
2017-08-03T20:43:49.508Z,8.60
2017-08-03T20:46:16.485Z,8.60
2017-08-03T20:48:43.154Z,6.97
2017-08-03T20:51:09.779Z,3.30
2017-08-03T20:53:36.787Z,7.93
2017-08-03T20:56:03.381Z,9.87
2017-08-03T20:58:29.961Z,6.20
2017-08-03T21:00:56.564Z,5.80
2017-08-03T21:03:23.141Z,7.43
2017-08-03T21:05:49.741Z,7.40
2017-08-03T21:08:16.650Z,7.37
2017-08-03T21:10:43.247Z,5.10
2017-08-03T21:13:09.840Z,5.80
2017-08-03T21:15:36.529Z,13.00
2017-08-03T21:18:03.110Z,5.73
2017-08-03T21:20:29.682Z,8.03
2017-08-03T21:22:56.277Z,4.70
2017-08-03T21:25:22.853Z,5.07
2017-08-03T21:27:49.516Z,7.47
2017-08-03T21:30:16.176Z,6.53
2017-08-03T21:32:42.875Z,8.00
2017-08-03T21:35:09.457Z,8.47
2017-08-03T21:37:36.060Z,7.33
2017-08-03T21:40:02.624Z,7.43
2017-08-03T21:42:29.196Z,8.20
2017-08-03T21:44:56.081Z,9.87
2017-08-03T21:47:22.656Z,14.37
2017-08-03T21:49:49.268Z,6.77
2017-08-03T21:52:16.515Z,8.20
2017-08-03T21:54:43.196Z,9.77
2017-08-03T21:57:09.749Z,9.70
2017-08-03T21:59:36.673Z,11.17
2017-08-03T22:02:03.249Z,12.53
2017-08-03T22:04:29.822Z,6.40
2017-08-03T22:06:56.400Z,4.97
2017-08-03T22:09:22.969Z,4.97
2017-08-03T22:11:49.569Z,7.53
2017-08-03T22:14:16.298Z,6.70
2017-08-03T22:16:42.967Z,9.47
2017-08-03T22:19:09.570Z,9.17
2017-08-03T22:21:36.489Z,7.80
2017-08-03T22:24:03.065Z,8.00
2017-08-03T22:26:29.657Z,4.43
2017-08-03T22:28:56.272Z,10.00
2017-08-03T22:31:22.844Z,4.80
2017-08-03T22:33:49.460Z,5.10
2017-08-03T22:36:16.068Z,9.67
2017-08-03T22:38:42.645Z,9.77
2017-08-03T22:41:09.214Z,6.20
2017-08-03T22:43:35.925Z,5.60
2017-08-03T22:46:02.480Z,5.67
2017-08-03T22:48:29.097Z,7.77
2017-08-03T22:50:56.046Z,9.73
2017-08-03T22:53:22.613Z,7.60
2017-08-03T22:55:49.221Z,8.80
2017-08-03T22:58:16.084Z,8.70
2017-08-03T23:00:42.733Z,6.40
2017-08-03T23:03:09.304Z,9.20
2017-08-03T23:05:35.905Z,4.20
2017-08-03T23:08:02.504Z,5.80
2017-08-03T23:10:29.184Z,13.03
2017-08-03T23:12:55.962Z,7.30
2017-08-03T23:15:22.526Z,5.97
2017-08-03T23:17:49.120Z,17.10
2017-08-03T23:20:15.781Z,4.97
2017-08-03T23:22:42.454Z,6.23
2017-08-03T23:25:09.096Z,10.10
2017-08-03T23:27:35.709Z,7.00
2017-08-03T23:30:02.364Z,11.87
2017-08-03T23:32:28.929Z,4.53
2017-08-03T23:34:55.529Z,8.50
2017-08-03T23:37:22.109Z,5.17
2017-08-03T23:39:48.720Z,9.73
2017-08-03T23:42:15.855Z,9.10
2017-08-03T23:44:42.459Z,8.13
2017-08-03T23:47:09.032Z,8.87
2017-08-03T23:49:35.631Z,6.50
2017-08-03T23:52:02.205Z,5.97
2017-08-03T23:54:28.771Z,11.27
2017-08-03T23:56:55.769Z,9.03
2017-08-03T23:59:22.384Z,8.10
